Current Weather

Aeroparque Jorge Newbery

Buenos Aires, Argentina (SABE)

Report from: Monday, March 4, 2024 8:00 PM -03
Current time: Monday, March 4, 2024 8:54 PM -03

Nearby weather – Weather history – Daily summaries
Weather forecast

Temperature23.0°C (73.4°F)
Dew point12.0°C (53.6°F)
Winds 4 kts (2.1 m/s, 4.6 mph) Vrb
Winds variableWinds variable from North (350°) to East (80°)
Clouds Sky clear
Altimeter30.03 in.Hg (1017 mB)
Relative humidity50 %
Density altitude1,002 ft. (305 m)
Remarks Ceiling and visibility OK
No significant changes expected in the next two hours
Flight conditions Visual Meteorological Conditions
Raw dataSABE 042300Z 03004KT 350V080 CAVOK 23/12 Q1017 NOSIG
An error has occurred. This application may no longer respond until reloaded. Reload 🗙